createdAt,value
2018-12-29T00:05:18.540Z,96698.07
2018-12-29T00:08:08.998Z,96702.97
2018-12-29T00:10:52.062Z,96705.69
2018-12-29T00:13:42.567Z,96701.38
2018-12-29T00:16:25.449Z,96707.72
2018-12-29T00:19:18.001Z,96711.42
2018-12-29T00:22:01.607Z,96702.22
2018-12-29T00:24:52.125Z,96713.34
2018-12-29T00:27:35.345Z,96723.45
2018-12-29T00:30:25.867Z,96728.59
2018-12-29T00:33:09.136Z,96724.84
2018-12-29T00:35:59.611Z,96725.97
2018-12-29T00:38:43.029Z,96729.38
2018-12-29T00:41:24.620Z,96727.17
2018-12-29T00:44:08.060Z,96732.98
2018-12-29T00:46:58.537Z,96724.34
2018-12-29T00:49:42.068Z,96725.55
2018-12-29T00:52:33.582Z,96722.53
2018-12-29T00:55:17.293Z,96726.05
2018-12-29T00:58:07.828Z,96725.16
2018-12-29T01:00:51.346Z,96731.34
2018-12-29T01:03:42.756Z,96736.25
2018-12-29T01:06:25.743Z,96731.50
2018-12-29T01:09:16.268Z,96739.16
2018-12-29T01:11:59.763Z,96745.38
2018-12-29T01:14:50.228Z,96746.23
2018-12-29T01:17:35.139Z,96752.89
2018-12-29T01:20:25.653Z,96756.91
2018-12-29T01:23:09.018Z,96758.11
2018-12-29T01:25:59.551Z,96751.97
2018-12-29T01:28:43.136Z,96767.94
2018-12-29T01:31:33.684Z,96768.12
2018-12-29T01:34:16.438Z,96762.91
2018-12-29T01:37:06.968Z,96766.59
2018-12-29T01:39:50.318Z,96764.72
2018-12-29T01:42:40.866Z,96768.33
2018-12-29T01:45:23.926Z,96764.72
2018-12-29T01:48:14.464Z,96760.28
2018-12-29T01:50:57.746Z,96771.20
2018-12-29T01:53:48.834Z,96766.35
2018-12-29T01:56:30.352Z,96763.44
2018-12-29T01:59:20.904Z,96766.95
2018-12-29T02:02:04.192Z,96761.59
2018-12-29T02:04:54.729Z,96760.84
2018-12-29T02:07:38.094Z,96761.56
2018-12-29T02:10:28.627Z,96744.64
2018-12-29T02:13:11.899Z,96741.88
2018-12-29T02:16:02.424Z,96725.42
2018-12-29T02:18:45.698Z,96737.34
2018-12-29T02:21:36.234Z,96743.30
2018-12-29T02:24:19.472Z,96740.73
2018-12-29T02:27:10.027Z,96759.25
2018-12-29T02:29:51.625Z,96757.72
2018-12-29T02:32:42.163Z,96763.61
2018-12-29T02:35:25.368Z,96762.88
2018-12-29T02:38:15.907Z,96761.95
2018-12-29T02:41:00.702Z,96756.91
2018-12-29T02:43:51.144Z,96752.45
2018-12-29T02:46:34.518Z,96757.88
2018-12-29T02:49:25.140Z,96761.63
2018-12-29T02:52:09.571Z,96749.43
2018-12-29T02:55:00.164Z,96760.10
2018-12-29T02:57:41.714Z,96756.70
2018-12-29T03:00:32.245Z,96769.22
2018-12-29T03:03:15.462Z,96763.79
2018-12-29T03:06:06.030Z,96764.36
2018-12-29T03:08:49.290Z,96770.53
2018-12-29T03:11:39.802Z,96764.40
2018-12-29T03:14:21.356Z,96773.26
2018-12-29T03:17:11.821Z,96772.81
2018-12-29T03:19:55.329Z,96771.70
2018-12-29T03:22:45.831Z,96774.80
2018-12-29T03:25:29.400Z,96775.95
2018-12-29T03:28:19.933Z,96775.46
2018-12-29T03:31:03.001Z,96778.20
2018-12-29T03:33:53.539Z,96765.94
2018-12-29T03:36:37.081Z,96749.34
2018-12-29T03:39:27.591Z,96749.84
2018-12-29T03:42:10.843Z,96744.50
2018-12-29T03:45:01.326Z,96745.05
2018-12-29T03:47:44.683Z,96749.02
2018-12-29T03:50:35.219Z,96732.17
2018-12-29T03:53:18.482Z,96738.48
2018-12-29T03:56:09.023Z,96729.84
2018-12-29T03:58:51.813Z,96724.03
2018-12-29T04:01:42.324Z,96726.16
2018-12-29T04:04:25.711Z,96730.59
2018-12-29T04:07:16.167Z,96729.61
2018-12-29T04:09:59.540Z,96731.23
2018-12-29T04:12:54.066Z,96737.61
2018-12-29T04:15:37.616Z,96744.28
2018-12-29T04:18:28.151Z,96733.36
2018-12-29T04:21:11.411Z,96724.95
2018-12-29T04:24:01.929Z,96714.17
2018-12-29T04:26:45.199Z,96725.06
2018-12-29T04:29:35.717Z,96731.20
2018-12-29T04:32:19.259Z,96741.13
2018-12-29T04:35:09.707Z,96740.92
2018-12-29T04:37:52.666Z,96736.23
2018-12-29T04:44:09.894Z,96729.11
2018-12-29T04:46:52.574Z,96749.78
2018-12-29T04:49:35.714Z,96750.73
2018-12-29T04:52:26.279Z,96749.75
2018-12-29T04:55:09.489Z,96759.35
2018-12-29T04:57:59.962Z,96752.16
2018-12-29T05:00:42.957Z,96760.89
2018-12-29T05:03:33.490Z,96750.14
2018-12-29T05:06:16.651Z,96762.05
2018-12-29T05:09:27.417Z,96763.88
2018-12-29T05:12:10.145Z,96787.20
2018-12-29T05:15:00.676Z,96780.08
2018-12-29T05:17:43.979Z,96780.43
2018-12-29T05:20:34.525Z,96780.00
2018-12-29T05:23:17.329Z,96788.62
2018-12-29T05:26:07.845Z,96805.30
2018-12-29T05:28:50.953Z,96818.67
2018-12-29T05:31:41.486Z,96817.88
2018-12-29T05:34:23.053Z,96829.61
2018-12-29T05:37:14.488Z,96825.63
2018-12-29T05:39:58.930Z,96818.52
2018-12-29T05:42:49.457Z,96823.78
2018-12-29T05:45:32.184Z,96815.61
2018-12-29T05:48:22.719Z,96816.75
2018-12-29T05:51:05.918Z,96817.61
2018-12-29T05:53:56.430Z,96804.64
2018-12-29T05:56:39.650Z,96797.48
2018-12-29T05:59:30.174Z,96814.89
2018-12-29T06:02:13.677Z,96813.09
2018-12-29T06:05:04.263Z,96834.27
2018-12-29T06:07:47.652Z,96823.44
2018-12-29T06:10:38.188Z,96831.09
2018-12-29T06:13:21.792Z,96836.94
2018-12-29T06:16:12.308Z,96850.83
2018-12-29T06:18:53.927Z,96857.04
2018-12-29T06:21:44.537Z,96840.81
2018-12-29T06:24:27.666Z,96846.95
2018-12-29T06:27:18.192Z,96839.19
2018-12-29T06:30:01.385Z,96835.64
2018-12-29T06:32:51.945Z,96833.45
2018-12-29T06:35:35.348Z,96821.37
2018-12-29T06:38:25.872Z,96828.64
2018-12-29T06:41:08.793Z,96825.14
2018-12-29T06:43:59.329Z,96832.27
2018-12-29T06:46:42.805Z,96843.00
2018-12-29T06:49:33.372Z,96850.14
2018-12-29T06:52:16.804Z,96835.20
2018-12-29T06:55:07.343Z,96840.63
2018-12-29T06:57:50.672Z,96845.25
2018-12-29T07:00:41.186Z,96840.50
2018-12-29T07:03:24.079Z,96848.41
2018-12-29T07:06:14.601Z,96852.18
2018-12-29T07:08:57.801Z,96858.09
2018-12-29T07:11:48.252Z,96854.04
2018-12-29T07:14:31.528Z,96855.70
2018-12-29T07:17:22.083Z,96860.72
2018-12-29T07:20:05.402Z,96863.02
2018-12-29T07:22:55.938Z,96867.40
2018-12-29T07:25:39.064Z,96868.52
2018-12-29T07:28:29.621Z,96875.39
2018-12-29T07:31:13.170Z,96877.19
2018-12-29T07:33:56.254Z,96875.88
2018-12-29T07:36:38.997Z,96884.20
2018-12-29T07:39:29.520Z,96880.53
2018-12-29T07:42:12.758Z,96884.02
2018-12-29T07:45:04.238Z,96891.43
2018-12-29T07:47:45.750Z,96886.69
2018-12-29T07:50:36.276Z,96882.04
2018-12-29T07:53:19.653Z,96886.16
2018-12-29T07:56:10.204Z,96883.05
2018-12-29T07:58:51.838Z,96886.09
2018-12-29T08:01:42.378Z,96888.65
2018-12-29T08:04:25.271Z,96902.24
2018-12-29T08:07:15.780Z,96902.83
2018-12-29T08:09:58.956Z,96910.47
2018-12-29T08:12:49.483Z,96909.83
2018-12-29T08:15:32.925Z,96915.58
2018-12-29T08:18:23.462Z,96919.13
2018-12-29T08:21:07.043Z,96925.62
2018-12-29T08:23:57.576Z,96920.23
2018-12-29T08:26:40.329Z,96926.08
2018-12-29T08:29:30.861Z,96921.20
2018-12-29T08:32:14.044Z,96923.27
2018-12-29T08:34:56.914Z,96928.53
2018-12-29T08:37:38.564Z,96928.52
2018-12-29T08:40:29.091Z,96929.13
2018-12-29T08:43:12.576Z,96931.06
2018-12-29T08:46:03.016Z,96922.81
2018-12-29T08:48:44.580Z,96909.45
2018-12-29T08:51:35.096Z,96922.98
2018-12-29T08:54:18.557Z,96926.41
2018-12-29T08:57:09.167Z,96929.82
2018-12-29T08:59:52.451Z,96925.27
2018-12-29T09:02:42.996Z,96923.68
2018-12-29T09:05:31.905Z,96914.80
2018-12-29T09:08:22.449Z,96916.59
2018-12-29T09:11:05.451Z,96922.61
2018-12-29T09:13:55.982Z,96928.16
2018-12-29T09:16:39.132Z,96932.67
2018-12-29T09:19:29.636Z,96936.72
2018-12-29T09:22:12.978Z,96934.16
2018-12-29T09:25:03.515Z,96933.59
2018-12-29T09:27:46.949Z,96943.61
2018-12-29T09:30:38.198Z,96945.95
2018-12-29T09:33:21.741Z,96945.09
2018-12-29T09:36:03.241Z,96947.17
2018-12-29T09:38:44.853Z,96954.57
2018-12-29T09:41:35.357Z,96945.81
2018-12-29T09:44:17.046Z,96947.95
2018-12-29T09:46:48.537Z,96938.69
2018-12-29T09:49:20.097Z,96943.34
2018-12-29T09:51:51.716Z,96937.16
2018-12-29T09:54:23.333Z,96933.07
2018-12-29T09:56:54.788Z,96938.36
2018-12-29T09:59:26.252Z,96943.48
2018-12-29T10:01:57.721Z,96936.77
2018-12-29T10:04:29.162Z,96938.45
2018-12-29T10:07:00.690Z,96944.02
2018-12-29T10:09:32.126Z,96936.56
2018-12-29T10:12:03.597Z,96937.38
2018-12-29T10:14:35.064Z,96934.58
2018-12-29T10:17:06.522Z,96934.80
2018-12-29T10:19:37.974Z,96940.44
2018-12-29T10:22:09.496Z,96944.28
2018-12-29T10:24:41.026Z,96945.86
2018-12-29T10:27:12.499Z,96943.26
2018-12-29T10:29:44.028Z,96946.92
2018-12-29T10:32:16.581Z,96949.95
2018-12-29T10:34:48.150Z,96948.03
2018-12-29T10:37:19.659Z,96939.14
2018-12-29T10:39:51.116Z,96937.74
2018-12-29T10:42:22.601Z,96944.37
2018-12-29T10:45:06.314Z,96943.78
2018-12-29T10:47:57.030Z,96949.63
2018-12-29T10:50:40.577Z,96944.91
2018-12-29T10:53:31.271Z,96947.77
2018-12-29T10:56:14.442Z,96945.19
2018-12-29T11:02:11.534Z,96936.50
2018-12-29T11:05:02.172Z,96941.91
2018-12-29T11:07:45.564Z,96940.89
2018-12-29T11:10:28.346Z,96939.20
2018-12-29T11:13:18.886Z,96940.39
2018-12-29T11:16:02.097Z,96947.98
2018-12-29T11:22:12.678Z,96942.84
2018-12-29T11:24:55.441Z,96935.29
2018-12-29T11:27:38.354Z,96934.66
2018-12-29T11:33:31.302Z,96927.14
2018-12-29T11:36:14.998Z,96925.95
2018-12-29T11:42:34.090Z,96921.59
2018-12-29T11:45:24.717Z,96918.07
2018-12-29T11:48:08.209Z,96912.60
2018-12-29T11:50:51.821Z,96915.70
2018-12-29T11:56:44.314Z,96910.14
2018-12-29T11:59:34.867Z,96913.36
2018-12-29T12:02:24.403Z,96910.84
2018-12-29T12:08:30.571Z,96900.81
2018-12-29T12:11:13.883Z,96902.17
2018-12-29T12:13:57.733Z,96891.70
2018-12-29T12:16:48.304Z,96888.72
2018-12-29T12:19:31.543Z,96891.52
2018-12-29T12:22:22.103Z,96884.20
2018-12-29T12:25:03.781Z,96885.19
2018-12-29T12:27:54.308Z,96868.91
2018-12-29T12:30:37.757Z,96872.27
2018-12-29T12:33:28.570Z,96871.41
2018-12-29T12:36:11.860Z,96874.69
2018-12-29T12:39:02.469Z,96870.93
2018-12-29T12:41:53.207Z,96868.05
2018-12-29T12:44:43.785Z,96858.98
2018-12-29T12:47:47.277Z,96858.28
2018-12-29T12:50:37.848Z,96858.27
2018-12-29T12:53:21.424Z,96846.50
2018-12-29T12:59:14.359Z,96852.00
2018-12-29T13:05:08.793Z,96840.60
2018-12-29T13:07:59.319Z,96838.33
2018-12-29T13:10:42.377Z,96836.84
2018-12-29T13:16:34.662Z,96835.27
2018-12-29T13:19:28.625Z,96832.38
2018-12-29T13:22:15.779Z,96832.28
2018-12-29T13:25:06.302Z,96838.00
2018-12-29T13:27:47.986Z,96837.83
2018-12-29T13:30:38.593Z,96838.02
2018-12-29T13:33:21.530Z,96836.69
2018-12-29T13:36:05.421Z,96842.02
2018-12-29T13:38:48.980Z,96838.59
2018-12-29T13:41:39.576Z,96842.67
2018-12-29T13:44:33.330Z,96838.71
2018-12-29T13:47:23.886Z,96830.05
2018-12-29T13:50:07.239Z,96838.71
2018-12-29T13:52:57.754Z,96830.84
2018-12-29T13:55:41.269Z,96830.51
2018-12-29T13:58:32.780Z,96828.87
2018-12-29T14:01:16.415Z,96833.56
2018-12-29T14:04:06.952Z,96838.05
2018-12-29T14:07:11.242Z,96840.42
2018-12-29T14:10:01.809Z,96840.21
2018-12-29T14:12:45.421Z,96834.00
2018-12-29T14:15:35.958Z,96830.45
2018-12-29T14:18:17.525Z,96826.98
2018-12-29T14:24:10.458Z,96830.63
2018-12-29T14:30:03.464Z,96820.62
2018-12-29T14:32:54.087Z,96815.20
2018-12-29T14:35:56.578Z,96814.98
2018-12-29T14:38:47.090Z,96806.55
2018-12-29T14:41:30.514Z,96814.25
2018-12-29T14:44:20.975Z,96803.81
2018-12-29T14:47:02.527Z,96811.59
2018-12-29T14:49:53.068Z,96792.17
2018-12-29T14:52:36.231Z,96795.16
2018-12-29T14:55:26.771Z,96787.33
2018-12-29T14:58:10.198Z,96785.05
2018-12-29T15:01:00.798Z,96779.22
2018-12-29T15:03:43.995Z,96770.17
2018-12-29T15:06:34.574Z,96759.14
2018-12-29T15:09:17.633Z,96762.53
2018-12-29T15:12:08.501Z,96768.02
2018-12-29T15:14:53.307Z,96768.73
2018-12-29T15:17:43.902Z,96772.64
2018-12-29T15:20:33.902Z,96780.72
2018-12-29T15:23:24.749Z,96776.97
2018-12-29T15:26:08.299Z,96776.23
2018-12-29T15:28:58.774Z,96777.97
2018-12-29T15:31:42.162Z,96781.98
2018-12-29T15:34:32.732Z,96771.34
2018-12-29T15:37:15.608Z,96765.55
2018-12-29T15:40:06.236Z,96775.09
2018-12-29T15:42:49.425Z,96780.05
2018-12-29T15:45:39.922Z,96781.56
2018-12-29T15:48:23.382Z,96774.94
2018-12-29T16:12:47.003Z,96776.59
2018-12-29T16:15:50.993Z,96771.64
2018-12-29T16:18:41.833Z,96760.73
2018-12-29T16:21:44.378Z,96758.08
2018-12-29T16:24:35.291Z,96755.92
2018-12-29T16:27:38.972Z,96748.74
2018-12-29T16:30:29.582Z,96748.56
2018-12-29T16:33:13.191Z,96743.23
2018-12-29T16:35:54.861Z,96745.77
2018-12-29T16:38:38.337Z,96747.92
2018-12-29T16:41:22.107Z,96745.55
2018-12-29T16:44:13.079Z,96738.89
2018-12-29T16:46:56.387Z,96737.08
2018-12-29T16:49:46.973Z,96725.58
2018-12-29T16:52:37.225Z,96726.70
2018-12-29T16:55:28.070Z,96714.95
2018-12-29T16:58:32.199Z,96709.27
2018-12-29T17:01:22.806Z,96694.81
2018-12-29T17:04:05.691Z,96680.56
2018-12-29T17:06:56.690Z,96673.45
2018-12-29T17:10:00.256Z,96681.73
2018-12-29T17:12:50.802Z,96668.50
2018-12-29T17:15:34.224Z,96652.73
2018-12-29T17:18:25.297Z,96653.80
2018-12-29T17:21:08.382Z,96660.31
2018-12-29T17:23:58.933Z,96665.44
2018-12-29T17:26:42.322Z,96659.38
2018-12-29T17:29:33.016Z,96663.73
2018-12-29T17:32:14.744Z,96661.55
2018-12-29T17:35:05.382Z,96660.41
2018-12-29T17:37:48.796Z,96659.26
2018-12-29T17:40:39.265Z,96664.16
2018-12-29T17:43:22.764Z,96668.97
2018-12-29T17:46:13.411Z,96674.09
2018-12-29T17:48:55.216Z,96672.23
2018-12-29T17:51:46.138Z,96678.45
2018-12-29T17:54:29.179Z,96687.45
2018-12-29T17:57:19.724Z,96678.04
2018-12-29T18:00:02.550Z,96676.72
2018-12-29T18:02:54.163Z,96665.23
2018-12-29T18:05:37.175Z,96648.28
2018-12-29T18:08:27.707Z,96645.19
2018-12-29T18:11:11.226Z,96654.48
2018-12-29T18:14:01.770Z,96660.31
2018-12-29T18:16:45.287Z,96660.63
2018-12-29T18:19:36.056Z,96673.43
2018-12-29T18:22:38.378Z,96675.30
2018-12-29T18:28:31.044Z,96675.01
2018-12-29T18:31:21.595Z,96691.23
2018-12-29T18:34:03.120Z,96683.27
2018-12-29T18:36:53.744Z,96671.80
2018-12-29T18:39:44.341Z,96677.52
2018-12-29T18:42:27.168Z,96678.91
2018-12-29T18:45:17.796Z,96665.86
2018-12-29T18:48:00.804Z,96663.67
2018-12-29T18:50:51.450Z,96653.81
2018-12-29T18:53:34.309Z,96639.73
2018-12-29T18:56:24.973Z,96637.08
2018-12-29T19:01:57.366Z,96633.98
2018-12-29T19:04:42.682Z,96620.62
2018-12-29T19:07:26.324Z,96615.80
2018-12-29T19:10:16.886Z,96617.87
2018-12-29T19:13:00.109Z,96633.53
2018-12-29T19:15:50.652Z,96626.64
2018-12-29T19:18:32.428Z,96615.70
2018-12-29T19:21:22.983Z,96632.20
2018-12-29T19:24:27.339Z,96617.08
2018-12-29T19:30:20.178Z,96596.93
2018-12-29T19:33:11.097Z,96599.64
2018-12-29T19:35:54.597Z,96591.96
2018-12-29T19:38:36.386Z,96580.05
2018-12-29T19:41:26.869Z,96565.70
2018-12-29T19:44:30.461Z,96582.02
2018-12-29T19:47:21.143Z,96576.70
2018-12-29T19:50:04.654Z,96591.72
2018-12-29T19:52:55.237Z,96595.39
2018-12-29T19:55:38.710Z,96601.42
2018-12-29T19:58:29.298Z,96596.25
2018-12-29T20:01:12.723Z,96601.91
2018-12-29T20:04:03.305Z,96591.56
2018-12-29T20:06:46.553Z,96593.36
2018-12-29T20:09:29.649Z,96587.05
2018-12-29T20:12:20.576Z,96610.16
2018-12-29T20:15:04.084Z,96600.25
2018-12-29T20:17:54.660Z,96585.92
2018-12-29T20:20:37.753Z,96566.55
2018-12-29T20:23:28.363Z,96562.52
2018-12-29T20:26:11.706Z,96549.35
2018-12-29T20:29:02.252Z,96530.92
2018-12-29T20:31:45.772Z,96552.28
2018-12-29T20:34:36.276Z,96578.07
2018-12-29T20:37:19.152Z,96583.00
2018-12-29T20:40:02.037Z,96561.30
2018-12-29T20:42:52.685Z,96572.28
2018-12-29T20:45:36.088Z,96611.91
2018-12-29T20:48:29.056Z,96625.66
2018-12-29T20:51:12.342Z,96629.83
2018-12-29T20:54:02.919Z,96621.73
2018-12-29T20:56:46.055Z,96625.98
2018-12-29T20:59:36.668Z,96625.66
2018-12-29T21:02:18.333Z,96613.62
2018-12-29T21:05:08.885Z,96604.38
2018-12-29T21:07:52.039Z,96602.70
2018-12-29T21:10:34.813Z,96593.67
2018-12-29T21:13:25.363Z,96594.22
2018-12-29T21:16:09.794Z,96588.58
2018-12-29T21:21:50.660Z,96541.41
2018-12-29T21:24:22.105Z,96551.95
2018-12-29T21:26:53.526Z,96568.14
2018-12-29T21:29:25.065Z,96577.66
2018-12-29T21:31:58.138Z,96584.69
2018-12-29T21:34:48.671Z,96588.91
2018-12-29T21:37:31.582Z,96591.28
2018-12-29T21:40:14.950Z,96567.65
2018-12-29T21:42:58.538Z,96559.14
2018-12-29T21:45:49.072Z,96563.56
2018-12-29T21:48:30.662Z,96550.54
2018-12-29T21:51:21.219Z,96533.72
2018-12-29T21:54:04.572Z,96527.58
2018-12-29T21:56:55.105Z,96518.17
2018-12-29T21:59:38.651Z,96501.06
2018-12-29T22:31:25.643Z,96433.20
2018-12-29T22:34:16.157Z,96410.70
2018-12-29T22:36:59.202Z,96412.72
2018-12-29T22:39:42.993Z,96414.97
2018-12-29T22:42:36.645Z,96406.02
2018-12-29T22:50:59.269Z,96388.97
2018-12-29T22:53:42.039Z,96399.11
2018-12-29T22:59:11.487Z,96396.28
2018-12-29T23:05:07.994Z,96397.67
2018-12-29T23:10:33.239Z,96387.00
2018-12-29T23:13:18.782Z,96391.06
2018-12-29T23:16:01.103Z,96390.09
2018-12-29T23:18:43.428Z,96399.44
2018-12-29T23:21:29.733Z,96398.06
2018-12-29T23:24:12.607Z,96411.70
2018-12-29T23:26:53.731Z,96415.12
2018-12-29T23:29:36.602Z,96405.52
2018-12-29T23:32:20.551Z,96402.41
2018-12-29T23:35:04.454Z,96403.07
2018-12-29T23:37:46.989Z,96398.13
2018-12-29T23:40:29.685Z,96397.28
2018-12-29T23:43:12.074Z,96397.66
2018-12-29T23:46:02.607Z,96393.54
2018-12-29T23:48:52.308Z,96384.81
2018-12-29T23:51:34.519Z,96388.03
2018-12-29T23:54:16.570Z,96387.58
2018-12-29T23:57:05.974Z,96385.73
2018-12-29T23:59:48.685Z,96384.38
